createdAt,value
2023-03-11T00:01:30.423Z,99338.78
2023-03-11T00:04:02.299Z,99352.16
2023-03-11T00:06:32.735Z,99358.34
2023-03-11T00:09:03.339Z,99366.47
2023-03-11T00:11:34.005Z,99365.59
2023-03-11T00:14:04.525Z,99373.03
2023-03-11T00:16:37.662Z,99379.59
2023-03-11T00:19:08.111Z,99388.44
2023-03-11T00:21:38.713Z,99383.13
2023-03-11T00:24:10.073Z,99399.88
2023-03-11T00:26:40.722Z,99412.63
2023-03-11T00:29:11.319Z,99411.00
2023-03-11T00:31:44.359Z,99413.66
2023-03-11T00:34:14.966Z,99418.63
2023-03-11T00:36:45.514Z,99416.72
2023-03-11T00:39:16.072Z,99428.34
2023-03-11T00:41:47.912Z,99434.69
2023-03-11T00:44:18.505Z,99416.03
2023-03-11T00:46:53.127Z,99441.78
2023-03-11T00:49:23.789Z,99453.63
2023-03-11T00:51:54.496Z,99468.63
2023-03-11T00:54:25.324Z,99467.22
2023-03-11T00:56:55.923Z,99467.59
2023-03-11T00:59:26.500Z,99466.91
2023-03-11T01:01:59.860Z,99479.28
2023-03-11T01:04:30.892Z,99483.66
2023-03-11T01:07:01.486Z,99483.50
2023-03-11T01:09:32.146Z,99493.41
2023-03-11T01:12:02.598Z,99449.69
2023-03-11T01:14:33.191Z,99502.28
2023-03-11T01:17:06.299Z,99509.19
2023-03-11T01:19:36.860Z,99509.72
2023-03-11T01:22:07.462Z,99511.09
2023-03-11T01:24:38.386Z,99515.38
2023-03-11T01:27:09.280Z,99513.78
2023-03-11T01:29:39.890Z,99528.31
2023-03-11T01:32:13.997Z,99531.69
2023-03-11T01:34:44.562Z,99542.59
2023-03-11T01:37:15.012Z,99539.28
2023-03-11T01:39:46.054Z,99534.72
2023-03-11T01:42:16.473Z,99562.81
2023-03-11T01:44:47.311Z,99562.25
2023-03-11T01:47:40.118Z,99567.75
2023-03-11T01:50:15.810Z,99559.59
2023-03-11T01:52:47.678Z,99570.41
2023-03-11T01:55:21.372Z,99575.19
2023-03-11T01:57:52.980Z,99528.19
2023-03-11T02:00:24.296Z,99585.75
2023-03-11T02:03:01.133Z,99591.59
2023-03-11T02:05:32.001Z,99597.09
2023-03-11T02:08:04.991Z,99597.84
2023-03-11T02:10:37.717Z,99605.78
2023-03-11T02:13:08.378Z,99607.75
2023-03-11T02:15:40.130Z,99609.16
2023-03-11T02:18:18.659Z,99615.00
2023-03-11T02:20:55.769Z,99614.81
2023-03-11T02:23:32.739Z,99619.25
2023-03-11T02:26:10.356Z,99618.34
2023-03-11T02:28:45.497Z,99612.72
2023-03-11T02:31:16.604Z,99612.34
2023-03-11T02:33:50.269Z,99595.75
2023-03-11T02:36:38.865Z,99626.84
2023-03-11T02:39:12.962Z,99632.47
2023-03-11T02:41:46.960Z,99638.31
2023-03-11T02:44:20.250Z,99642.38
2023-03-11T02:46:51.200Z,99620.50
2023-03-11T02:49:24.420Z,99632.84
2023-03-11T02:51:55.197Z,99649.97
2023-03-11T02:54:25.874Z,99654.25
2023-03-11T02:56:56.354Z,99657.78
2023-03-11T02:59:29.422Z,99660.25
2023-03-11T03:02:01.442Z,99665.22
2023-03-11T03:04:33.143Z,99678.09
2023-03-11T03:07:04.742Z,99671.03
2023-03-11T03:09:35.907Z,99673.50
2023-03-11T03:12:07.489Z,99678.44
2023-03-11T03:14:42.243Z,99684.81
2023-03-11T03:17:14.063Z,99660.06
2023-03-11T03:19:44.562Z,99678.28
2023-03-11T03:22:16.343Z,99697.56
2023-03-11T03:24:48.117Z,99697.56
2023-03-11T03:27:19.373Z,99696.84
2023-03-11T03:29:52.659Z,99702.16
2023-03-11T03:32:23.888Z,99711.19
2023-03-11T03:34:58.461Z,99710.31
2023-03-11T03:37:40.004Z,99720.22
2023-03-11T03:40:13.127Z,99723.94
2023-03-11T03:42:43.637Z,99715.94
2023-03-11T03:45:17.189Z,99733.66
2023-03-11T03:47:48.379Z,99738.25
2023-03-11T03:50:19.252Z,99748.31
2023-03-11T03:52:52.059Z,99755.22
2023-03-11T03:55:24.544Z,99763.72
2023-03-11T03:57:56.238Z,99765.50
2023-03-11T04:00:32.161Z,99770.44
2023-03-11T04:03:06.105Z,99771.50
2023-03-11T04:05:44.893Z,99779.81
2023-03-11T04:08:17.596Z,99783.69
2023-03-11T04:10:58.756Z,99787.59
2023-03-11T04:13:30.862Z,99785.66
2023-03-11T04:16:06.197Z,99790.94
2023-03-11T04:18:37.342Z,99793.25
2023-03-11T04:21:10.406Z,99790.94
2023-03-11T04:23:41.407Z,99791.28
2023-03-11T04:26:13.016Z,99800.69
2023-03-11T04:28:43.636Z,99799.44
2023-03-11T04:31:17.207Z,99799.44
2023-03-11T04:33:47.869Z,99794.16
2023-03-11T04:36:18.841Z,99806.88
2023-03-11T04:38:49.410Z,99799.78
2023-03-11T04:41:21.021Z,99791.81
2023-03-11T04:43:51.494Z,99798.91
2023-03-11T04:46:24.881Z,99798.84
2023-03-11T04:48:55.783Z,99805.75
2023-03-11T04:51:26.360Z,99814.03
2023-03-11T04:53:57.188Z,99826.56
2023-03-11T04:56:28.705Z,99824.78
2023-03-11T04:58:59.300Z,99833.28
2023-03-11T05:01:33.276Z,99841.41
2023-03-11T05:04:07.281Z,99844.63
2023-03-11T05:06:38.347Z,99849.59
2023-03-11T05:09:09.829Z,99856.69
2023-03-11T05:11:43.661Z,99859.72
2023-03-11T05:14:15.426Z,99856.88
2023-03-11T05:16:48.773Z,99862.72
2023-03-11T05:19:31.704Z,99869.63
2023-03-11T05:22:05.370Z,99875.81
2023-03-11T05:24:36.858Z,99875.41
2023-03-11T05:27:08.477Z,99876.88
2023-03-11T05:29:40.943Z,99880.22
2023-03-11T05:32:17.093Z,99879.50
2023-03-11T05:34:49.714Z,99887.63
2023-03-11T05:37:21.479Z,99893.81
2023-03-11T05:39:54.834Z,99900.91
2023-03-11T05:42:26.473Z,99915.75
2023-03-11T05:44:59.206Z,99906.38
2023-03-11T05:47:33.493Z,99912.25
2023-03-11T05:50:04.431Z,99910.16
2023-03-11T05:52:35.393Z,99887.44
2023-03-11T05:55:06.584Z,99919.16
2023-03-11T05:57:37.724Z,99910.81
2023-03-11T06:00:12.474Z,99915.44
2023-03-11T06:02:53.199Z,99923.53
2023-03-11T06:05:24.528Z,99925.31
2023-03-11T06:07:56.980Z,99930.63
2023-03-11T06:10:28.062Z,99935.06
2023-03-11T06:12:58.505Z,99936.66
2023-03-11T06:15:40.704Z,99892.38
2023-03-11T06:18:14.018Z,99941.09
2023-03-11T06:20:44.594Z,99959.34
2023-03-11T06:23:15.064Z,99956.88
2023-03-11T06:25:45.516Z,99953.00
2023-03-11T06:28:16.126Z,99968.94
2023-03-11T06:30:48.493Z,99968.59
2023-03-11T06:33:22.502Z,99965.56
2023-03-11T06:36:00.689Z,99960.59
2023-03-11T06:38:31.629Z,99977.81
2023-03-11T06:41:03.911Z,99968.44
2023-03-11T06:43:37.066Z,99985.97
2023-03-11T06:46:12.442Z,99989.34
2023-03-11T06:48:47.305Z,99996.94
2023-03-11T06:51:20.355Z,100008.25
2023-03-11T06:53:52.702Z,100003.63
2023-03-11T06:56:25.598Z,100011.81
2023-03-11T06:59:01.031Z,100008.09
2023-03-11T07:01:35.098Z,100015.91
2023-03-11T07:04:12.447Z,100018.91
2023-03-11T07:06:45.674Z,100038.06
2023-03-11T07:09:22.517Z,100035.22
2023-03-11T07:11:53.044Z,100047.06
2023-03-11T07:14:30.155Z,100052.75
2023-03-11T07:17:01.578Z,100057.56
2023-03-11T07:19:42.476Z,100061.78
2023-03-11T07:22:12.986Z,100060.34
2023-03-11T07:24:43.686Z,100078.06
2023-03-11T07:27:14.136Z,100080.75
2023-03-11T07:29:44.706Z,100087.63
2023-03-11T07:32:19.100Z,100090.50
2023-03-11T07:34:52.008Z,100094.63
2023-03-11T07:37:22.471Z,100094.06
2023-03-11T07:39:53.105Z,100101.91
2023-03-11T07:42:23.627Z,100100.66
2023-03-11T07:44:56.148Z,100116.78
2023-03-11T07:47:26.732Z,100114.88
2023-03-11T07:50:00.074Z,100127.63
2023-03-11T07:52:33.348Z,100130.25
2023-03-11T07:55:04.174Z,100140.19
2023-03-11T07:57:34.619Z,100136.97
2023-03-11T08:00:05.557Z,100148.28
2023-03-11T08:02:42.325Z,100145.88
2023-03-11T08:05:15.881Z,100163.03
2023-03-11T08:07:46.632Z,100164.31
2023-03-11T08:10:17.129Z,100176.50
2023-03-11T08:12:47.699Z,100178.28
2023-03-11T08:15:18.401Z,100174.19
2023-03-11T08:17:49.473Z,100185.94
2023-03-11T08:20:22.663Z,100137.78
2023-03-11T08:22:58.092Z,100189.50
2023-03-11T08:25:29.619Z,100184.72
2023-03-11T08:28:00.291Z,100186.69
2023-03-11T08:30:30.790Z,100197.47
2023-03-11T08:33:01.193Z,100198.53
2023-03-11T08:35:34.734Z,100199.78
2023-03-11T08:38:05.311Z,100203.69
2023-03-11T08:40:35.899Z,100206.69
2023-03-11T08:43:06.438Z,100213.81
2023-03-11T08:45:37.539Z,100220.53
2023-03-11T08:48:08.541Z,100216.81
2023-03-11T08:50:53.510Z,100224.25
2023-03-11T08:53:26.038Z,100238.28
2023-03-11T08:55:56.533Z,100238.66
2023-03-11T08:58:26.994Z,100178.09
2023-03-11T09:00:58.028Z,100241.47
2023-03-11T09:03:29.618Z,100251.25
2023-03-11T09:06:04.017Z,100248.97
2023-03-11T09:08:34.846Z,100255.53
2023-03-11T09:11:05.716Z,100242.75
2023-03-11T09:13:36.302Z,100258.16
2023-03-11T09:16:07.957Z,100262.09
2023-03-11T09:18:38.466Z,100259.94
2023-03-11T09:21:13.826Z,100256.41
2023-03-11T09:23:48.274Z,100259.25
2023-03-11T09:26:18.830Z,100260.50
2023-03-11T09:28:49.970Z,100266.00
2023-03-11T09:31:21.336Z,100272.56
2023-03-11T09:33:52.985Z,100266.88
2023-03-11T09:36:26.216Z,100267.78
2023-03-11T09:38:56.693Z,100270.59
2023-03-11T09:41:47.886Z,100275.94
2023-03-11T09:44:33.435Z,100283.72
2023-03-11T09:47:20.964Z,100284.97
2023-03-11T09:50:15.250Z,100289.94
2023-03-11T09:52:56.271Z,100290.31
2023-03-11T09:55:45.196Z,100289.44
2023-03-11T09:58:20.608Z,100300.06
2023-03-11T10:00:52.284Z,100288.88
2023-03-11T10:03:33.202Z,100292.22
2023-03-11T10:06:10.956Z,100283.69
2023-03-11T10:08:48.515Z,100285.91
2023-03-11T10:12:00.546Z,100297.41
2023-03-11T10:14:47.719Z,100303.66
2023-03-11T10:17:31.916Z,100304.22
2023-03-11T10:20:10.056Z,100280.47
2023-03-11T10:22:50.638Z,100308.81
2023-03-11T10:25:28.291Z,100313.13
2023-03-11T10:28:05.524Z,100275.31
2023-03-11T10:30:42.423Z,100309.34
2023-03-11T10:33:24.831Z,100301.28
2023-03-11T10:35:57.736Z,100318.75
2023-03-11T10:38:30.628Z,100316.97
2023-03-11T10:41:09.917Z,100308.88
2023-03-11T10:43:44.387Z,100312.59
2023-03-11T10:46:21.574Z,100308.66
2023-03-11T10:48:52.038Z,100312.06
2023-03-11T10:51:26.898Z,100317.25
2023-03-11T10:53:59.471Z,100314.97
2023-03-11T10:56:36.089Z,100314.59
2023-03-11T10:59:08.748Z,100315.81
2023-03-11T11:01:39.335Z,100317.09
2023-03-11T11:04:30.767Z,100326.69
2023-03-11T11:07:02.209Z,100325.47
2023-03-11T11:09:32.939Z,100327.59
2023-03-11T11:12:08.534Z,100328.28
2023-03-11T11:14:50.223Z,100332.00
2023-03-11T11:17:23.743Z,100329.94
2023-03-11T11:19:56.982Z,100337.56
2023-03-11T11:22:28.512Z,100342.75
2023-03-11T11:24:59.495Z,100337.03
2023-03-11T11:27:32.929Z,100338.75
2023-03-11T11:30:17.708Z,100336.59
2023-03-11T11:32:47.884Z,100338.88
2023-03-11T11:35:20.027Z,100307.66
2023-03-11T11:37:52.672Z,100342.44
2023-03-11T11:40:32.435Z,100347.78
2023-03-11T11:43:09.617Z,100340.09
2023-03-11T11:45:42.922Z,100347.22
2023-03-11T11:48:20.746Z,100344.75
2023-03-11T11:50:55.799Z,100336.66
2023-03-11T11:53:37.808Z,100331.31
2023-03-11T11:56:08.639Z,100337.69
2023-03-11T11:58:43.777Z,100344.88
2023-03-11T12:01:19.560Z,100335.25
2023-03-11T12:04:22.795Z,100341.03
2023-03-11T12:07:04.748Z,100336.03
2023-03-11T12:09:43.050Z,100338.44
2023-03-11T12:12:24.416Z,100341.31
2023-03-11T12:15:04.263Z,100342.00
2023-03-11T12:17:38.715Z,100339.59
2023-03-11T12:20:15.205Z,100346.69
2023-03-11T12:23:14.668Z,100345.41
2023-03-11T12:25:55.472Z,100343.13
2023-03-11T12:28:33.082Z,100336.47
2023-03-11T12:31:10.598Z,100332.41
2023-03-11T12:33:44.065Z,100337.78
2023-03-11T12:36:32.200Z,100340.34
2023-03-11T12:39:05.722Z,100338.28
2023-03-11T12:41:40.158Z,100330.25
2023-03-11T12:44:25.907Z,100337.91
2023-03-11T12:47:27.423Z,100348.25
2023-03-11T12:50:00.832Z,100347.88
2023-03-11T12:52:34.420Z,100339.34
2023-03-11T12:55:40.760Z,100339.34
2023-03-11T12:58:58.908Z,100344.63
2023-03-11T13:02:10.802Z,100336.13
2023-03-11T13:04:54.924Z,100341.91
2023-03-11T13:07:51.159Z,100339.78
2023-03-11T13:10:37.636Z,100347.22
2023-03-11T13:13:38.130Z,100343.00
2023-03-11T13:16:39.558Z,100360.13
2023-03-11T13:19:38.682Z,100357.81
2023-03-11T13:22:46.104Z,100365.28
2023-03-11T13:25:36.411Z,100339.13
2023-03-11T13:28:27.017Z,100365.47
2023-03-11T13:31:02.301Z,100365.31
2023-03-11T13:33:44.221Z,100371.41
2023-03-11T13:36:32.348Z,100368.75
2023-03-11T13:39:35.546Z,100368.75
2023-03-11T13:42:20.070Z,100361.34
2023-03-11T13:44:50.872Z,100378.31
2023-03-11T13:47:23.310Z,100377.22
2023-03-11T13:49:57.545Z,100381.63
2023-03-11T13:52:29.472Z,100375.41
2023-03-11T13:55:06.493Z,100379.59
2023-03-11T13:57:40.540Z,100374.72
2023-03-11T14:00:24.091Z,100379.94
2023-03-11T14:02:57.974Z,100385.13
2023-03-11T14:05:30.242Z,100388.69
2023-03-11T14:08:15.181Z,100382.44
2023-03-11T14:10:55.287Z,100379.63
2023-03-11T14:13:30.436Z,100379.56
2023-03-11T14:16:06.454Z,100368.97
2023-03-11T14:18:42.253Z,100387.78
2023-03-11T14:21:18.254Z,100386.66
2023-03-11T14:23:51.043Z,100392.03
2023-03-11T14:26:23.566Z,100391.81
2023-03-11T14:28:59.016Z,100393.94
2023-03-11T14:31:34.515Z,100397.34
2023-03-11T14:34:07.730Z,100403.91
2023-03-11T14:36:48.633Z,100400.88
2023-03-11T14:39:34.080Z,100410.50
2023-03-11T14:42:18.829Z,100410.91
2023-03-11T14:44:58.201Z,100405.25
2023-03-11T14:47:38.548Z,100420.63
2023-03-11T14:50:15.504Z,100413.19
2023-03-11T14:52:50.190Z,100422.63
2023-03-11T14:55:23.859Z,100417.25
2023-03-11T14:57:58.119Z,100425.22
2023-03-11T15:00:36.805Z,100421.81
2023-03-11T15:03:17.196Z,100419.16
2023-03-11T15:05:51.639Z,100428.44
2023-03-11T15:08:24.360Z,100437.03
2023-03-11T15:11:09.057Z,100435.91
2023-03-11T15:13:41.495Z,100431.31
2023-03-11T15:16:27.398Z,100437.41
2023-03-11T15:18:57.911Z,100428.13
2023-03-11T15:21:28.465Z,100379.47
2023-03-11T15:24:05.399Z,100381.69
2023-03-11T15:26:38.528Z,100422.00
2023-03-11T15:29:17.346Z,100403.34
2023-03-11T15:31:50.897Z,100420.78
2023-03-11T15:34:32.919Z,100421.31
2023-03-11T15:37:06.998Z,100423.66
2023-03-11T15:39:51.200Z,100414.94
2023-03-11T15:42:25.083Z,100412.47
2023-03-11T15:45:06.046Z,100423.22
2023-03-11T15:47:39.241Z,100417.84
2023-03-11T15:50:40.200Z,100415.84
2023-03-11T15:53:17.377Z,100422.84
2023-03-11T15:55:47.949Z,100416.47
2023-03-11T15:58:21.237Z,100428.41
2023-03-11T16:00:53.700Z,100394.00
2023-03-11T16:03:27.696Z,100422.22
2023-03-11T16:05:59.207Z,100432.38
2023-03-11T16:08:29.684Z,100432.59
2023-03-11T16:11:00.400Z,100434.72
2023-03-11T16:13:30.859Z,100425.84
2023-03-11T16:16:04.149Z,100437.22
2023-03-11T16:18:38.060Z,100434.75
2023-03-11T16:21:11.927Z,100437.44
2023-03-11T16:23:51.569Z,100443.31
2023-03-11T16:26:25.238Z,100433.19
2023-03-11T16:28:56.446Z,100433.53
2023-03-11T16:31:28.261Z,100441.19
2023-03-11T16:34:01.310Z,100439.06
2023-03-11T16:36:31.784Z,100446.50
2023-03-11T16:39:03.650Z,100447.75
2023-03-11T16:41:44.686Z,100445.44
2023-03-11T16:44:15.529Z,100447.94
2023-03-11T16:46:46.032Z,100454.00
2023-03-11T16:49:19.137Z,100455.59
2023-03-11T16:51:49.872Z,100436.38
2023-03-11T16:54:20.398Z,100443.28
2023-03-11T16:56:51.003Z,100455.56
2023-03-11T16:59:21.416Z,100461.75
2023-03-11T17:01:52.057Z,100465.50
2023-03-11T17:04:25.102Z,100461.03
2023-03-11T17:06:55.601Z,100459.09
2023-03-11T17:09:26.376Z,100469.38
2023-03-11T17:11:57.103Z,100471.50
2023-03-11T17:14:27.635Z,100472.72
2023-03-11T17:16:58.188Z,100460.81
2023-03-11T17:19:33.466Z,100465.97
2023-03-11T17:22:04.206Z,100469.84
2023-03-11T17:24:34.771Z,100433.56
2023-03-11T17:27:05.332Z,100473.75
2023-03-11T17:29:36.569Z,100472.13
2023-03-11T17:32:07.689Z,100469.97
2023-03-11T17:34:40.845Z,100475.97
2023-03-11T17:37:11.935Z,100482.91
2023-03-11T17:39:42.356Z,100483.91
2023-03-11T17:42:13.088Z,100458.44
2023-03-11T17:44:51.429Z,100492.25
2023-03-11T17:47:26.150Z,100494.91
2023-03-11T17:49:58.968Z,100497.91
2023-03-11T17:52:29.392Z,100504.28
2023-03-11T17:55:00.430Z,100504.81
2023-03-11T17:57:35.393Z,100491.50
2023-03-11T18:00:15.033Z,100506.41
2023-03-11T18:02:45.805Z,100505.16
2023-03-11T18:05:18.972Z,100507.63
2023-03-11T18:07:52.623Z,100508.13
2023-03-11T18:10:23.624Z,100520.38
2023-03-11T18:12:54.498Z,100515.91
2023-03-11T18:15:28.193Z,100510.41
2023-03-11T18:17:59.179Z,100507.72
2023-03-11T18:20:32.612Z,100509.25
2023-03-11T18:23:03.681Z,100520.41
2023-03-11T18:25:34.572Z,100519.16
2023-03-11T18:28:05.542Z,100520.22
2023-03-11T18:30:39.884Z,100519.56
2023-03-11T18:33:09.996Z,100518.47
2023-03-11T18:35:43.380Z,100516.00
2023-03-11T18:38:14.224Z,100517.94
2023-03-11T18:40:44.824Z,100522.41
2023-03-11T18:43:16.892Z,100519.19
2023-03-11T18:45:47.619Z,100508.91
2023-03-11T18:48:18.185Z,100523.16
2023-03-11T18:50:57.064Z,100513.53
2023-03-11T18:53:27.713Z,100518.00
2023-03-11T18:56:03.246Z,100518.38
2023-03-11T18:58:33.934Z,100514.28
2023-03-11T19:01:08.870Z,100514.97
2023-03-11T19:03:39.535Z,100515.69
2023-03-11T19:06:13.804Z,100520.66
2023-03-11T19:08:43.979Z,100517.59
2023-03-11T19:11:19.414Z,100514.75
2023-03-11T19:13:50.582Z,100515.28
2023-03-11T19:16:24.524Z,100505.84
2023-03-11T19:18:55.901Z,100514.50
2023-03-11T19:21:29.457Z,100513.66
2023-03-11T19:24:00.668Z,100505.28
2023-03-11T19:26:44.210Z,100508.47
2023-03-11T19:29:16.347Z,100507.38
2023-03-11T19:31:46.819Z,100513.75
2023-03-11T19:34:17.297Z,100512.88
2023-03-11T19:36:50.697Z,100524.41
2023-03-11T19:39:21.113Z,100526.53
2023-03-11T19:41:51.547Z,100532.88
2023-03-11T19:44:21.992Z,100540.66
2023-03-11T19:46:52.573Z,100537.97
2023-03-11T19:49:23.036Z,100542.06
2023-03-11T19:51:56.216Z,100540.66
2023-03-11T19:54:26.732Z,100549.88
2023-03-11T19:56:57.287Z,100542.41
2023-03-11T19:59:27.778Z,100545.75
2023-03-11T20:01:58.352Z,100545.75
2023-03-11T20:04:29.209Z,100543.59
2023-03-11T20:07:02.620Z,100544.09
2023-03-11T20:09:34.425Z,100550.84
2023-03-11T20:12:04.975Z,100552.44
2023-03-11T20:14:35.471Z,100504.50
2023-03-11T20:17:06.018Z,100492.81
2023-03-11T20:19:36.780Z,100534.66
2023-03-11T20:22:09.949Z,100536.28
2023-03-11T20:24:40.399Z,100529.69
2023-03-11T20:27:10.850Z,100533.06
2023-03-11T20:29:41.380Z,100532.00
2023-03-11T20:32:11.933Z,100536.28
2023-03-11T20:34:42.537Z,100538.03
2023-03-11T20:37:15.579Z,100546.88
2023-03-11T20:39:46.011Z,100545.13
2023-03-11T20:42:16.452Z,100542.94
2023-03-11T20:44:46.883Z,100547.91
2023-03-11T20:47:17.477Z,100553.06
2023-03-11T20:49:48.411Z,100555.34
2023-03-11T20:52:21.919Z,100561.00
2023-03-11T20:54:52.660Z,100560.25
2023-03-11T20:57:23.165Z,100551.19
2023-03-11T20:59:54.108Z,100554.75
2023-03-11T21:02:24.795Z,100551.00
2023-03-11T21:04:55.530Z,100553.50
2023-03-11T21:07:28.852Z,100548.53
2023-03-11T21:09:59.261Z,100562.50
2023-03-11T21:12:31.295Z,100551.91
2023-03-11T21:15:02.031Z,100551.72
2023-03-11T21:17:32.636Z,100559.16
2023-03-11T21:20:04.993Z,100563.41
2023-03-11T21:22:38.157Z,100561.66
2023-03-11T21:25:10.041Z,100566.41
2023-03-11T21:27:40.755Z,100567.41
2023-03-11T21:30:13.779Z,100562.28
2023-03-11T21:32:44.676Z,100551.81
2023-03-11T21:35:15.254Z,100569.66
2023-03-11T21:37:48.726Z,100572.13
2023-03-11T21:40:19.319Z,100565.69
2023-03-11T21:42:49.899Z,100566.75
2023-03-11T21:45:20.519Z,100566.09
2023-03-11T21:47:51.277Z,100568.34
2023-03-11T21:50:22.006Z,100576.19
2023-03-11T21:52:55.297Z,100569.84
2023-03-11T21:55:25.889Z,100566.47
2023-03-11T21:57:56.301Z,100567.47
2023-03-11T22:00:27.078Z,100570.25
2023-03-11T22:02:57.811Z,100570.94
2023-03-11T22:05:28.520Z,100566.28
2023-03-11T22:08:01.705Z,100575.22
2023-03-11T22:10:33.744Z,100577.91
2023-03-11T22:13:04.394Z,100580.38
2023-03-11T22:15:35.009Z,100579.28
2023-03-11T22:18:05.571Z,100567.69
2023-03-11T22:20:35.972Z,100577.59
2023-03-11T22:23:09.061Z,100593.91
2023-03-11T22:25:39.559Z,100592.09
2023-03-11T22:28:13.093Z,100589.16
2023-03-11T22:30:43.808Z,100586.88
2023-03-11T22:33:14.309Z,100582.22
2023-03-11T22:35:52.335Z,100583.44
2023-03-11T22:38:25.480Z,100585.72
2023-03-11T22:40:56.359Z,100590.06
2023-03-11T22:43:26.889Z,100587.72
2023-03-11T22:45:57.550Z,100582.38
2023-03-11T22:48:29.112Z,100590.00
2023-03-11T22:51:00.025Z,100581.47
2023-03-11T22:53:33.140Z,100585.22
2023-03-11T22:56:03.703Z,100584.38
2023-03-11T22:58:34.138Z,100588.00
2023-03-11T23:01:04.629Z,100588.00
2023-03-11T23:03:35.541Z,100592.97
2023-03-11T23:06:09.838Z,100566.22
2023-03-11T23:08:42.991Z,100593.25
2023-03-11T23:11:15.735Z,100587.63
2023-03-11T23:13:47.451Z,100592.56
2023-03-11T23:16:19.809Z,100593.97
2023-03-11T23:18:53.573Z,100591.78
2023-03-11T23:21:27.342Z,100588.72
2023-03-11T23:24:01.609Z,100591.41
2023-03-11T23:26:32.553Z,100591.88
2023-03-11T23:29:03.725Z,100593.34
2023-03-11T23:31:34.329Z,100595.34
2023-03-11T23:34:06.620Z,100590.41
2023-03-11T23:36:37.095Z,100593.97
2023-03-11T23:39:10.477Z,100597.53
2023-03-11T23:41:40.900Z,100599.31
2023-03-11T23:44:11.381Z,100601.09
2023-03-11T23:46:41.895Z,100598.44
2023-03-11T23:49:12.462Z,100599.31
2023-03-11T23:51:43.043Z,100595.53
2023-03-11T23:54:16.281Z,100597.34
2023-03-11T23:56:47.119Z,100607.44
2023-03-11T23:59:17.598Z,100609.53
